createdAt,value
2023-03-12T00:01:52.030Z,99345.84
2023-03-12T00:04:54.455Z,99343.59
2023-03-12T00:07:59.862Z,99341.22
2023-03-12T00:11:06.814Z,99338.16
2023-03-12T00:14:11.355Z,99333.13
2023-03-12T00:17:14.033Z,99340.47
2023-03-12T00:20:16.821Z,99331.19
2023-03-12T00:23:19.073Z,99330.22
2023-03-12T00:26:22.232Z,99329.78
2023-03-12T00:29:24.981Z,99323.31
2023-03-12T00:32:28.030Z,99324.44
2023-03-12T00:35:30.581Z,99316.34
2023-03-12T00:38:33.014Z,99311.94
2023-03-12T00:41:35.389Z,99328.09
2023-03-12T00:44:37.843Z,99327.19
2023-03-12T00:47:40.496Z,99330.31
2023-03-12T00:50:43.792Z,99310.53
2023-03-12T00:53:46.435Z,99318.28
2023-03-12T00:56:49.176Z,99320.91
2023-03-12T00:59:51.513Z,99320.34
2023-03-12T01:02:53.959Z,99312.19
2023-03-12T01:05:56.396Z,99316.72
2023-03-12T01:08:58.882Z,99296.94
2023-03-12T01:12:01.194Z,99300.88
2023-03-12T01:15:04.903Z,99301.75
2023-03-12T01:18:07.422Z,99300.28
2023-03-12T01:21:10.031Z,99297.81
2023-03-12T01:24:12.660Z,99303.97
2023-03-12T01:27:15.263Z,99305.31
2023-03-12T01:30:17.849Z,99302.75
2023-03-12T01:33:23.038Z,99307.41
2023-03-12T01:36:28.116Z,99307.56
2023-03-12T01:39:30.777Z,99292.41
2023-03-12T01:42:33.842Z,99294.97
2023-03-12T01:45:51.584Z,99292.50
2023-03-12T01:49:23.022Z,99296.56
2023-03-12T01:52:29.576Z,99285.34
2023-03-12T01:55:32.495Z,99288.75
2023-03-12T01:58:37.050Z,99302.53
2023-03-12T02:01:40.215Z,99301.38
2023-03-12T02:04:44.408Z,99310.31
2023-03-12T02:07:47.437Z,99317.06
2023-03-12T02:10:50.028Z,99314.16
2023-03-12T02:13:52.684Z,99324.00
2023-03-12T02:16:56.951Z,99335.28
2023-03-12T02:20:16.313Z,99338.81
2023-03-12T02:23:32.976Z,99326.94
2023-03-12T02:26:37.902Z,99341.34
2023-03-12T02:29:42.209Z,99348.56
2023-03-12T02:32:46.371Z,99343.38
2023-03-12T02:35:49.116Z,99342.25
2023-03-12T02:38:53.462Z,99330.81
2023-03-12T02:41:57.970Z,99345.22
2023-03-12T02:45:01.390Z,99354.16
2023-03-12T02:48:04.712Z,99359.66
2023-03-12T02:51:07.214Z,99365.06
2023-03-12T02:54:10.219Z,99365.00
2023-03-12T02:57:12.654Z,99359.09
2023-03-12T03:00:16.393Z,99374.47
2023-03-12T03:03:23.366Z,99356.59
2023-03-12T03:06:25.854Z,99365.66
2023-03-12T03:09:29.755Z,99369.16
2023-03-12T03:12:33.033Z,99378.97
2023-03-12T03:15:36.296Z,99371.69
2023-03-12T03:18:38.804Z,99355.16
2023-03-12T03:21:41.535Z,99387.13
2023-03-12T03:24:44.324Z,99375.59
2023-03-12T03:27:46.873Z,99375.59
2023-03-12T03:30:49.475Z,99384.59
2023-03-12T03:33:52.260Z,99382.50
2023-03-12T03:36:54.736Z,99367.63
2023-03-12T03:39:58.567Z,99383.69
2023-03-12T03:43:01.174Z,99390.47
2023-03-12T03:46:05.935Z,99393.50
2023-03-12T03:49:12.332Z,99393.41
2023-03-12T03:52:16.717Z,99402.94
2023-03-12T03:55:19.502Z,99410.13
2023-03-12T03:58:22.094Z,99418.00
2023-03-12T04:01:24.833Z,99422.38
2023-03-12T04:04:27.698Z,99425.63
2023-03-12T04:07:30.012Z,99427.72
2023-03-12T04:10:32.440Z,99434.59
2023-03-12T04:13:35.416Z,99435.59
2023-03-12T04:16:37.956Z,99444.09
2023-03-12T04:19:40.998Z,99433.84
2023-03-12T04:22:43.399Z,99440.81
2023-03-12T04:25:46.632Z,99433.00
2023-03-12T04:28:49.037Z,99436.50
2023-03-12T04:31:51.428Z,99445.28
2023-03-12T04:34:54.029Z,99443.78
2023-03-12T04:37:56.720Z,99438.97
2023-03-12T04:41:05.621Z,99443.38
2023-03-12T04:44:12.261Z,99440.09
2023-03-12T04:47:15.655Z,99439.03
2023-03-12T04:50:18.577Z,99444.94
2023-03-12T04:53:21.392Z,99443.34
2023-03-12T04:56:25.078Z,99459.88
2023-03-12T04:59:27.471Z,99458.13
2023-03-12T05:02:29.945Z,99457.00
2023-03-12T05:05:32.553Z,99477.91
2023-03-12T05:08:35.023Z,99482.13
2023-03-12T05:11:39.842Z,99481.84
2023-03-12T05:14:44.977Z,99471.19
2023-03-12T05:17:47.530Z,99471.03
2023-03-12T05:21:04.825Z,99479.00
2023-03-12T05:24:07.640Z,99495.91
2023-03-12T05:27:10.404Z,99485.38
2023-03-12T05:30:13.202Z,99480.66
2023-03-12T05:33:15.801Z,99500.53
2023-03-12T05:36:18.333Z,99502.41
2023-03-12T05:39:22.331Z,99503.63
2023-03-12T05:42:25.914Z,99508.03
2023-03-12T05:45:28.521Z,99508.28
2023-03-12T05:48:33.742Z,99514.44
2023-03-12T05:51:36.925Z,99514.13
2023-03-12T05:54:39.303Z,99519.13
2023-03-12T05:57:42.053Z,99525.56
2023-03-12T06:00:45.290Z,99522.75
2023-03-12T06:03:49.208Z,99530.03
2023-03-12T06:06:51.642Z,99532.59
2023-03-12T06:09:54.033Z,99542.97
2023-03-12T06:12:56.457Z,99546.03
2023-03-12T06:16:06.754Z,99551.25
2023-03-12T06:19:14.337Z,99572.75
2023-03-12T06:22:18.731Z,99556.50
2023-03-12T06:25:21.524Z,99563.53
2023-03-12T06:28:23.899Z,99574.28
2023-03-12T06:31:27.129Z,99577.03
2023-03-12T06:34:29.530Z,99585.47
2023-03-12T06:37:32.577Z,99573.69
2023-03-12T06:40:34.946Z,99598.09
2023-03-12T06:43:38.605Z,99595.59
2023-03-12T06:46:42.727Z,99594.16
2023-03-12T06:49:45.465Z,99604.22
2023-03-12T06:52:47.797Z,99607.44
2023-03-12T06:55:51.782Z,99612.84
2023-03-12T06:58:54.293Z,99606.75
2023-03-12T07:01:57.152Z,99601.47
2023-03-12T07:04:59.762Z,99597.09
2023-03-12T07:08:02.221Z,99586.56
2023-03-12T07:11:04.913Z,99623.19
2023-03-12T07:14:07.312Z,99616.84
2023-03-12T07:17:09.847Z,99605.72
2023-03-12T07:20:12.992Z,99588.34
2023-03-12T07:23:15.648Z,99625.66
2023-03-12T07:26:18.488Z,99628.63
2023-03-12T07:29:20.998Z,99631.00
2023-03-12T07:32:23.461Z,99636.28
2023-03-12T07:35:26.282Z,99644.88
2023-03-12T07:38:28.979Z,99633.31
2023-03-12T07:41:31.841Z,99663.34
2023-03-12T07:44:36.887Z,99654.34
2023-03-12T07:47:39.529Z,99655.13
2023-03-12T07:50:42.110Z,99665.38
2023-03-12T07:53:44.503Z,99657.69
2023-03-12T07:56:46.928Z,99663.78
2023-03-12T07:59:49.386Z,99664.59
2023-03-12T08:02:52.548Z,99664.41
2023-03-12T08:06:00.259Z,99659.59
2023-03-12T08:09:02.704Z,99648.38
2023-03-12T08:12:06.474Z,99661.88
2023-03-12T08:15:09.576Z,99688.41
2023-03-12T08:18:11.877Z,99680.47
2023-03-12T08:21:16.493Z,99674.78
2023-03-12T08:24:18.998Z,99692.53
2023-03-12T08:27:21.414Z,99692.75
2023-03-12T08:30:23.870Z,99695.47
2023-03-12T08:33:26.890Z,99701.97
2023-03-12T08:36:29.417Z,99708.84
2023-03-12T08:39:32.061Z,99713.63
2023-03-12T08:42:34.468Z,99710.81
2023-03-12T08:45:37.396Z,99713.34
2023-03-12T08:48:41.081Z,99710.19
2023-03-12T08:51:43.619Z,99710.41
2023-03-12T08:54:46.078Z,99719.75
2023-03-12T08:57:48.549Z,99737.50
2023-03-12T09:00:52.017Z,99722.69
2023-03-12T09:03:55.473Z,99737.97
2023-03-12T09:06:58.079Z,99735.59
2023-03-12T09:10:00.468Z,99743.50
2023-03-12T09:13:03.663Z,99727.78
2023-03-12T09:16:08.038Z,99741.03
2023-03-12T09:19:11.600Z,99753.56
2023-03-12T09:22:15.300Z,99746.28
2023-03-12T09:25:19.728Z,99753.78
2023-03-12T09:28:22.959Z,99752.59
2023-03-12T09:31:27.124Z,99760.44
2023-03-12T09:34:30.464Z,99770.41
2023-03-12T09:37:32.901Z,99768.13
2023-03-12T09:40:41.545Z,99772.91
2023-03-12T09:43:53.057Z,99790.72
2023-03-12T09:46:58.999Z,99757.88
2023-03-12T09:50:09.160Z,99793.44
2023-03-12T09:53:17.884Z,99781.03
2023-03-12T09:56:25.120Z,99783.28
2023-03-12T09:59:29.123Z,99797.41
2023-03-12T10:02:40.633Z,99794.88
2023-03-12T10:05:48.226Z,99791.59
2023-03-12T10:09:20.520Z,99798.94
2023-03-12T10:12:46.224Z,99803.50
2023-03-12T10:16:07.919Z,99795.66
2023-03-12T10:19:20.769Z,99793.28
2023-03-12T10:22:33.317Z,99805.72
2023-03-12T10:25:53.648Z,99803.72
2023-03-12T10:29:21.548Z,99804.19
2023-03-12T10:32:43.140Z,99814.94
2023-03-12T10:35:45.699Z,99828.50
2023-03-12T10:38:51.422Z,99837.66
2023-03-12T10:41:53.935Z,99829.00
2023-03-12T10:45:16.127Z,99827.47
2023-03-12T10:48:23.791Z,99829.34
2023-03-12T10:51:26.269Z,99832.16
2023-03-12T10:54:40.911Z,99843.22
2023-03-12T10:57:43.399Z,99842.72
2023-03-12T11:00:57.048Z,99837.72
2023-03-12T11:04:18.083Z,99838.78
2023-03-12T11:07:26.222Z,99849.81
2023-03-12T11:10:44.687Z,99850.28
2023-03-12T11:13:47.205Z,99848.31
2023-03-12T11:16:50.868Z,99861.41
2023-03-12T11:19:54.060Z,99872.41
2023-03-12T11:22:57.052Z,99869.00
2023-03-12T11:26:18.743Z,99873.34
2023-03-12T11:29:29.804Z,99871.53
2023-03-12T11:32:36.300Z,99877.78
2023-03-12T11:36:02.208Z,99873.13
2023-03-12T11:39:20.753Z,99883.34
2023-03-12T11:42:58.608Z,99878.47
2023-03-12T11:46:28.685Z,99879.03
2023-03-12T11:49:51.970Z,99894.91
2023-03-12T11:53:45.529Z,99903.81
2023-03-12T11:56:55.034Z,99872.47
2023-03-12T12:00:12.483Z,99898.06
2023-03-12T12:03:26.750Z,99900.31
2023-03-12T12:06:45.832Z,99903.78
2023-03-12T12:09:49.464Z,99906.41
2023-03-12T12:13:07.161Z,99903.78
2023-03-12T12:16:36.914Z,99903.25
2023-03-12T12:19:56.002Z,99895.59
2023-03-12T12:23:10.931Z,99896.16
2023-03-12T12:26:14.667Z,99895.09
2023-03-12T12:29:50.257Z,99892.25
2023-03-12T12:33:01.051Z,99887.56
2023-03-12T12:36:03.833Z,99883.31
2023-03-12T12:39:20.145Z,99893.97
2023-03-12T12:42:27.054Z,99892.56
2023-03-12T12:45:31.146Z,99900.09
2023-03-12T12:48:39.289Z,99888.91
2023-03-12T12:51:45.179Z,99898.72
2023-03-12T12:55:07.947Z,99898.41
2023-03-12T12:58:18.343Z,99871.09
2023-03-12T13:01:21.430Z,99882.56
2023-03-12T13:04:31.796Z,99872.91
2023-03-12T13:07:34.857Z,99870.34
2023-03-12T13:10:37.643Z,99879.38
2023-03-12T13:13:40.164Z,99879.84
2023-03-12T13:16:47.100Z,99880.69
2023-03-12T13:20:00.937Z,99896.50
2023-03-12T13:23:13.686Z,99889.41
2023-03-12T13:26:52.132Z,99906.88
2023-03-12T13:29:58.097Z,99911.16
2023-03-12T13:33:03.556Z,99922.66
2023-03-12T13:36:17.960Z,99917.59
2023-03-12T13:39:27.628Z,99922.97
2023-03-12T13:42:39.218Z,99911.47
2023-03-12T13:46:07.803Z,99913.97
2023-03-12T13:49:15.121Z,99913.19
2023-03-12T13:52:31.176Z,99927.63
2023-03-12T13:55:39.436Z,99918.81
2023-03-12T13:58:47.129Z,99926.66
2023-03-12T14:01:52.098Z,99939.00
2023-03-12T14:04:57.757Z,99932.94
2023-03-12T14:08:10.963Z,99930.44
2023-03-12T14:11:25.367Z,99930.84
2023-03-12T14:14:30.397Z,99942.78
2023-03-12T14:17:34.429Z,99943.66
2023-03-12T14:20:39.216Z,99920.72
2023-03-12T14:23:56.948Z,99944.00
2023-03-12T14:27:01.404Z,99937.53
2023-03-12T14:30:24.179Z,99952.56
2023-03-12T14:33:29.380Z,99960.22
2023-03-12T14:37:00.916Z,99948.25
2023-03-12T14:40:19.340Z,99951.75
2023-03-12T14:43:27.745Z,99953.22
2023-03-12T14:46:30.241Z,99956.63
2023-03-12T14:49:32.712Z,99961.34
2023-03-12T14:52:35.308Z,99964.94
2023-03-12T14:55:41.387Z,99944.84
2023-03-12T14:58:47.477Z,99971.38
2023-03-12T15:01:49.909Z,99965.53
2023-03-12T15:04:56.063Z,99971.28
2023-03-12T15:08:03.025Z,99971.91
2023-03-12T15:11:05.999Z,99948.81
2023-03-12T15:14:14.509Z,99963.44
2023-03-12T15:17:21.303Z,99931.44
2023-03-12T15:20:25.150Z,99973.94
2023-03-12T15:23:29.226Z,99971.63
2023-03-12T15:26:33.255Z,99964.72
2023-03-12T15:29:42.038Z,99966.81
2023-03-12T15:33:08.264Z,99973.19
2023-03-12T15:36:21.293Z,99979.13
2023-03-12T15:39:34.167Z,99975.06
2023-03-12T15:42:40.229Z,99974.28
2023-03-12T15:45:42.610Z,99980.25
2023-03-12T15:48:50.506Z,99982.84
2023-03-12T15:52:01.218Z,99983.47
2023-03-12T15:55:15.653Z,99976.28
2023-03-12T15:58:35.533Z,99982.63
2023-03-12T16:01:53.010Z,99987.75
2023-03-12T16:04:55.562Z,99968.44
2023-03-12T16:07:58.610Z,99983.50
2023-03-12T16:11:01.792Z,99974.88
2023-03-12T16:14:24.692Z,99976.31
2023-03-12T16:17:27.035Z,99973.69
2023-03-12T16:20:29.939Z,99984.44
2023-03-12T16:23:32.627Z,99972.63
2023-03-12T16:26:47.280Z,99976.84
2023-03-12T16:29:50.097Z,99974.06
2023-03-12T16:32:52.560Z,99982.13
2023-03-12T16:35:55.900Z,99979.53
2023-03-12T16:38:58.357Z,99980.66
2023-03-12T16:42:02.129Z,99985.72
2023-03-12T16:45:05.040Z,99991.63
2023-03-12T16:48:07.466Z,99987.63
2023-03-12T16:51:14.858Z,99986.22
2023-03-12T16:54:17.197Z,99988.59
2023-03-12T16:57:40.883Z,100005.97
2023-03-12T17:00:43.512Z,100011.19
2023-03-12T17:03:49.689Z,99994.47
2023-03-12T17:06:52.183Z,99999.81
2023-03-12T17:09:55.241Z,100005.47
2023-03-12T17:12:57.855Z,100008.97
2023-03-12T17:16:00.387Z,100010.41
2023-03-12T17:19:02.894Z,100019.59
2023-03-12T17:22:05.336Z,100019.16
2023-03-12T17:25:09.607Z,100022.72
2023-03-12T17:28:12.609Z,100016.78
2023-03-12T17:31:14.970Z,100011.25
2023-03-12T17:34:18.080Z,100016.16
2023-03-12T17:37:20.446Z,100014.94
2023-03-12T17:40:23.414Z,100004.56
2023-03-12T17:43:25.965Z,100006.44
2023-03-12T17:46:29.811Z,100001.66
2023-03-12T17:49:32.425Z,100000.16
2023-03-12T17:52:35.092Z,99993.97
2023-03-12T17:55:37.630Z,99993.28
2023-03-12T17:58:40.642Z,99978.13
2023-03-12T18:01:43.062Z,99987.19
2023-03-12T18:04:45.439Z,99977.69
2023-03-12T18:07:48.824Z,99963.06
2023-03-12T18:10:51.478Z,99992.34
2023-03-12T18:13:54.143Z,100010.41
2023-03-12T18:16:56.568Z,99997.72
2023-03-12T18:19:58.980Z,100012.28
2023-03-12T18:23:01.435Z,100012.28
2023-03-12T18:26:04.837Z,100017.06
2023-03-12T18:29:07.248Z,100021.88
2023-03-12T18:32:09.820Z,100010.72
2023-03-12T18:35:12.170Z,100028.50
2023-03-12T18:38:14.708Z,100036.41
2023-03-12T18:41:17.276Z,100029.44
2023-03-12T18:44:19.696Z,100033.19
2023-03-12T18:47:22.110Z,100055.81
2023-03-12T18:50:24.529Z,100035.19
2023-03-12T18:53:26.894Z,100042.00
2023-03-12T18:56:29.875Z,100035.97
2023-03-12T18:59:32.570Z,100036.94
2023-03-12T19:02:34.957Z,100037.97
2023-03-12T19:05:37.379Z,100027.47
2023-03-12T19:08:40.258Z,100043.91
2023-03-12T19:11:42.602Z,100043.41
2023-03-12T19:14:45.093Z,100039.31
2023-03-12T19:17:47.531Z,100042.63
2023-03-12T19:20:49.974Z,100039.00
2023-03-12T19:23:53.230Z,100050.84
2023-03-12T19:26:56.148Z,100049.44
2023-03-12T19:29:58.676Z,100053.63
2023-03-12T19:33:01.257Z,100056.59
2023-03-12T19:36:04.242Z,100045.88
2023-03-12T19:39:15.174Z,100030.38
2023-03-12T19:42:23.186Z,100036.91
2023-03-12T19:45:26.061Z,100043.16
2023-03-12T19:48:28.783Z,100043.69
2023-03-12T19:51:32.018Z,100047.19
2023-03-12T19:54:34.609Z,100024.75
2023-03-12T19:57:37.041Z,100012.41
2023-03-12T20:00:39.586Z,100025.13
2023-03-12T20:03:43.825Z,100023.38
2023-03-12T20:06:46.424Z,100007.69
2023-03-12T20:09:48.804Z,100001.13
2023-03-12T20:12:51.119Z,100008.13
2023-03-12T20:15:53.705Z,100002.31
2023-03-12T20:18:55.967Z,100001.72
2023-03-12T20:21:58.355Z,99994.06
2023-03-12T20:25:01.062Z,99999.19
2023-03-12T20:28:03.744Z,100001.13
2023-03-12T20:31:10.459Z,100012.47
2023-03-12T20:34:13.046Z,100020.31
2023-03-12T20:37:15.362Z,100018.16
2023-03-12T20:40:18.072Z,100010.59
2023-03-12T20:43:20.317Z,99994.06
2023-03-12T20:46:23.210Z,100003.66
2023-03-12T20:49:25.835Z,99998.81
2023-03-12T20:52:28.316Z,99997.56
2023-03-12T20:55:30.841Z,100001.25
2023-03-12T20:58:33.441Z,100001.78
2023-03-12T21:01:36.180Z,100008.47
2023-03-12T21:04:38.850Z,100003.16
2023-03-12T21:07:41.451Z,100004.97
2023-03-12T21:10:43.723Z,99998.09
2023-03-12T21:13:46.306Z,99996.91
2023-03-12T21:16:49.300Z,99993.34
2023-03-12T21:19:51.669Z,99987.22
2023-03-12T21:22:54.286Z,99977.38
2023-03-12T21:26:00.960Z,99984.31
2023-03-12T21:29:03.608Z,99972.06
2023-03-12T21:32:06.225Z,99967.44
2023-03-12T21:35:09.826Z,99965.72
2023-03-12T21:38:12.895Z,99964.25
2023-03-12T21:41:19.150Z,99960.16
2023-03-12T21:44:21.674Z,99950.56
2023-03-12T21:47:24.439Z,99948.69
2023-03-12T21:50:26.938Z,99946.00
2023-03-12T21:53:29.627Z,99937.91
2023-03-12T21:56:32.294Z,99911.09
2023-03-12T21:59:34.648Z,99936.78
2023-03-12T22:02:36.980Z,99931.09
2023-03-12T22:05:39.415Z,99920.81
2023-03-12T22:08:42.545Z,99908.13
2023-03-12T22:11:45.496Z,99905.78
2023-03-12T22:14:47.925Z,99912.16
2023-03-12T22:17:51.134Z,99897.94
2023-03-12T22:20:54.776Z,99913.72
2023-03-12T22:23:58.740Z,99906.41
2023-03-12T22:27:03.395Z,99913.09
2023-03-12T22:30:06.332Z,99899.03
2023-03-12T22:33:08.994Z,99918.50
2023-03-12T22:36:13.256Z,99926.88
2023-03-12T22:39:17.502Z,99922.72
2023-03-12T22:42:20.017Z,99902.66
2023-03-12T22:45:23.201Z,99901.25
2023-03-12T22:48:25.666Z,99891.03
2023-03-12T22:51:30.138Z,99890.31
2023-03-12T22:54:32.408Z,99902.38
2023-03-12T22:57:36.210Z,99901.25
2023-03-12T23:00:38.624Z,99900.59
2023-03-12T23:03:43.068Z,99904.69
2023-03-12T23:06:45.510Z,99895.94
2023-03-12T23:09:48.286Z,99903.44
2023-03-12T23:12:51.083Z,99900.50
2023-03-12T23:15:54.165Z,99893.16
2023-03-12T23:18:56.761Z,99906.13
2023-03-12T23:21:59.360Z,99892.13
2023-03-12T23:25:01.694Z,99898.88
2023-03-12T23:28:05.344Z,99900.06
2023-03-12T23:31:09.032Z,99892.91
2023-03-12T23:34:11.397Z,99893.72
2023-03-12T23:37:14.445Z,99895.97
2023-03-12T23:40:17.299Z,99889.41
2023-03-12T23:43:19.648Z,99873.47
2023-03-12T23:46:22.281Z,99867.34
2023-03-12T23:49:24.697Z,99856.28
2023-03-12T23:52:27.708Z,99836.91
2023-03-12T23:55:30.158Z,99835.66
2023-03-12T23:58:32.645Z,99830.66
